createdAt,value
2018-08-23T00:02:10.672Z,6.10
2018-08-23T00:04:38.618Z,5.93
2018-08-23T00:07:06.433Z,5.70
2018-08-23T00:09:34.381Z,6.13
2018-08-23T00:12:02.244Z,6.60
2018-08-23T00:14:30.157Z,5.60
2018-08-23T00:16:58.036Z,6.00
2018-08-23T00:19:25.905Z,6.47
2018-08-23T00:21:53.795Z,6.50
2018-08-23T00:24:23.658Z,6.10
2018-08-23T00:26:54.988Z,5.93
2018-08-23T00:29:33.937Z,5.70
2018-08-23T00:32:05.129Z,5.80
2018-08-23T00:34:34.965Z,6.50
2018-08-23T00:37:03.144Z,6.33
2018-08-23T00:39:32.039Z,7.17
2018-08-23T00:42:03.995Z,6.23
2018-08-23T00:44:38.489Z,6.80
2018-08-23T00:47:06.330Z,6.50
2018-08-23T00:49:34.204Z,6.17
2018-08-23T00:52:02.035Z,5.90
2018-08-23T00:54:29.934Z,6.30
2018-08-23T00:56:57.850Z,6.03
2018-08-23T00:59:25.838Z,6.00
2018-08-23T01:02:05.101Z,6.30
2018-08-23T01:04:37.514Z,6.60
2018-08-23T01:07:05.436Z,6.13
2018-08-23T01:09:33.378Z,6.20
2018-08-23T01:12:01.270Z,6.03
2018-08-23T01:14:29.145Z,6.50
2018-08-23T01:17:04.888Z,6.87
2018-08-23T01:19:38.369Z,6.97
2018-08-23T01:22:06.890Z,6.67
2018-08-23T01:24:35.121Z,6.87
2018-08-23T01:27:03.018Z,6.63
2018-08-23T01:29:31.224Z,6.90
2018-08-23T01:32:04.802Z,5.90
2018-08-23T01:34:32.672Z,6.40
2018-08-23T01:37:00.522Z,6.63
2018-08-23T01:39:28.370Z,6.70
2018-08-23T01:41:56.294Z,6.47
2018-08-23T01:44:26.747Z,6.20
2018-08-23T01:46:54.671Z,6.27
2018-08-23T01:49:22.484Z,6.27
2018-08-23T01:51:50.413Z,6.43
2018-08-23T01:54:18.327Z,6.90
2018-08-23T01:56:46.251Z,6.77
2018-08-23T01:59:14.092Z,6.90
2018-08-23T02:01:41.950Z,6.53
2018-08-23T02:04:09.878Z,6.47
2018-08-23T02:06:37.777Z,6.50
2018-08-23T02:09:07.054Z,6.20
2018-08-23T02:11:34.944Z,6.57
2018-08-23T02:14:02.830Z,6.20
2018-08-23T02:16:36.424Z,6.47
2018-08-23T02:19:04.458Z,5.97
2018-08-23T02:21:32.382Z,6.27
2018-08-23T02:24:00.228Z,6.13
2018-08-23T02:26:28.101Z,6.00
2018-08-23T02:28:55.967Z,6.30
2018-08-23T02:31:23.856Z,5.80
2018-08-23T02:33:51.714Z,6.50
2018-08-23T02:36:20.213Z,5.90
2018-08-23T02:38:50.322Z,5.87
2018-08-23T02:41:18.369Z,5.90
2018-08-23T02:43:46.765Z,5.20
2018-08-23T02:46:14.810Z,5.40
2018-08-23T02:48:42.676Z,6.30
2018-08-23T02:51:10.600Z,5.70
2018-08-23T02:53:43.725Z,6.27
2018-08-23T02:56:13.139Z,5.60
2018-08-23T02:58:46.584Z,6.33
2018-08-23T03:01:14.490Z,6.20
2018-08-23T03:03:47.980Z,5.87
2018-08-23T03:06:18.731Z,6.10
2018-08-23T03:08:46.614Z,5.93
2018-08-23T03:11:14.525Z,6.40
2018-08-23T03:13:44.059Z,6.00
2018-08-23T03:16:12.321Z,6.23
2018-08-23T03:18:40.326Z,6.07
2018-08-23T03:21:08.666Z,5.80
2018-08-23T03:23:36.627Z,5.57
2018-08-23T03:26:04.515Z,5.77
2018-08-23T03:28:33.816Z,6.30
2018-08-23T03:31:02.617Z,5.70
2018-08-23T03:33:31.914Z,6.00
2018-08-23T03:35:59.829Z,5.90
2018-08-23T03:38:27.733Z,5.63
2018-08-23T03:40:55.783Z,5.90
2018-08-23T03:43:23.623Z,5.37
2018-08-23T03:45:51.464Z,5.37
2018-08-23T03:48:19.409Z,6.10
2018-08-23T03:50:51.273Z,5.67
2018-08-23T03:53:19.509Z,6.20
2018-08-23T03:56:19.557Z,5.80
2018-08-23T03:58:47.384Z,5.60
2018-08-23T04:01:15.258Z,5.60
2018-08-23T04:03:43.083Z,5.60
2018-08-23T04:06:19.688Z,5.53
2018-08-23T04:08:48.510Z,6.00
2018-08-23T04:11:16.893Z,5.70
2018-08-23T04:13:45.793Z,5.80
2018-08-23T04:16:13.732Z,5.90
2018-08-23T04:18:41.653Z,6.07
2018-08-23T04:21:09.537Z,6.00
2018-08-23T04:23:37.446Z,6.37
2018-08-23T04:26:05.389Z,6.20
2018-08-23T04:28:33.257Z,6.17
2018-08-23T04:31:01.085Z,5.60
2018-08-23T04:33:29.043Z,6.33
2018-08-23T04:35:56.972Z,6.20
2018-08-23T04:38:24.869Z,6.47
2018-08-23T04:40:56.038Z,6.80
2018-08-23T04:43:24.022Z,6.77
2018-08-23T04:45:51.803Z,6.93
2018-08-23T04:48:19.700Z,6.83
2018-08-23T04:50:47.631Z,6.60
2018-08-23T04:53:15.490Z,6.73
2018-08-23T04:55:43.358Z,6.80
2018-08-23T04:58:11.241Z,7.00
2018-08-23T05:00:39.097Z,7.37
2018-08-23T05:03:06.953Z,7.10
2018-08-23T05:05:34.874Z,6.53
2018-08-23T05:08:02.819Z,8.07
2018-08-23T05:10:30.691Z,7.73
2018-08-23T05:12:58.630Z,7.63
2018-08-23T05:15:26.546Z,7.40
2018-08-23T05:17:54.466Z,7.80
2018-08-23T05:20:22.418Z,8.70
2018-08-23T05:22:54.353Z,8.10
2018-08-23T05:25:22.330Z,8.27
2018-08-23T05:28:21.262Z,8.00
2018-08-23T05:30:49.727Z,8.23
2018-08-23T05:33:18.558Z,7.93
2018-08-23T05:35:46.588Z,8.07
2018-08-23T05:38:15.103Z,8.50
2018-08-23T05:40:46.077Z,7.73
2018-08-23T05:43:14.783Z,7.00
2018-08-23T05:45:48.069Z,8.60
2018-08-23T05:48:22.561Z,8.43
2018-08-23T05:50:50.485Z,7.83
2018-08-23T05:53:19.053Z,7.30
2018-08-23T05:55:50.876Z,8.13
2018-08-23T05:58:21.233Z,8.17
2018-08-23T06:00:49.185Z,7.60
2018-08-23T06:03:17.096Z,7.27
2018-08-23T06:05:46.254Z,7.60
2018-08-23T06:08:15.176Z,8.30
2018-08-23T06:10:45.435Z,7.90
2018-08-23T06:13:13.646Z,8.03
2018-08-23T06:15:51.336Z,7.67
2018-08-23T06:18:19.826Z,8.67
2018-08-23T06:20:47.758Z,7.90
2018-08-23T06:23:16.474Z,8.70
2018-08-23T06:25:44.846Z,8.40
2018-08-23T06:28:14.646Z,8.60
2018-08-23T06:30:42.806Z,8.30
2018-08-23T06:33:10.829Z,9.07
2018-08-23T06:35:40.975Z,7.70
2018-08-23T06:38:08.906Z,8.07
2018-08-23T06:40:36.812Z,8.30
2018-08-23T06:43:05.269Z,7.43
2018-08-23T06:45:33.149Z,7.60
2018-08-23T06:48:02.640Z,7.30
2018-08-23T06:50:30.530Z,7.37
2018-08-23T06:52:58.450Z,7.60
2018-08-23T06:55:32.928Z,7.10
2018-08-23T06:58:02.852Z,7.70
2018-08-23T07:00:31.127Z,7.50
2018-08-23T07:02:59.008Z,7.37
2018-08-23T07:05:27.077Z,7.37
2018-08-23T07:07:54.959Z,7.57
2018-08-23T07:10:22.889Z,7.77
2018-08-23T07:12:50.775Z,7.37
2018-08-23T07:15:19.679Z,7.43
2018-08-23T07:17:47.721Z,6.70
2018-08-23T07:20:16.550Z,6.63
2018-08-23T07:22:44.646Z,7.77
2018-08-23T07:25:14.314Z,7.10
2018-08-23T07:27:42.351Z,7.07
2018-08-23T07:30:13.693Z,6.60
2018-08-23T07:32:41.882Z,7.30
2018-08-23T07:35:12.913Z,6.30
2018-08-23T07:37:42.098Z,5.83
2018-08-23T07:40:11.052Z,6.20
2018-08-23T07:42:39.980Z,6.53
2018-08-23T07:45:08.199Z,6.67
2018-08-23T07:47:37.047Z,7.00
2018-08-23T07:50:05.527Z,6.40
2018-08-23T07:52:33.547Z,6.50
2018-08-23T07:55:02.970Z,6.20
2018-08-23T07:57:31.069Z,6.90
2018-08-23T08:00:00.281Z,6.43
2018-08-23T08:02:28.723Z,5.50
2018-08-23T08:04:57.193Z,5.93
2018-08-23T08:07:30.336Z,5.13
2018-08-23T08:09:59.482Z,6.47
2018-08-23T08:12:34.656Z,6.33
2018-08-23T08:15:02.644Z,6.47
2018-08-23T08:17:32.979Z,5.83
2018-08-23T08:20:03.517Z,5.67
2018-08-23T08:22:31.365Z,6.10
2018-08-23T08:25:01.676Z,5.30
2018-08-23T08:27:29.933Z,5.10
2018-08-23T08:29:57.843Z,5.53
2018-08-23T08:32:25.757Z,5.60
2018-08-23T08:34:56.090Z,5.47
2018-08-23T08:37:24.092Z,5.30
2018-08-23T08:39:52.026Z,5.77
2018-08-23T08:42:24.401Z,5.90
2018-08-23T08:44:52.318Z,5.20
2018-08-23T08:47:20.193Z,5.40
2018-08-23T08:49:48.100Z,5.97
2018-08-23T08:52:17.021Z,5.40
2018-08-23T08:54:44.930Z,5.60
2018-08-23T08:57:12.845Z,5.30
2018-08-23T08:59:40.708Z,5.17
2018-08-23T09:02:08.631Z,4.53
2018-08-23T09:04:36.757Z,5.10
2018-08-23T09:07:04.718Z,4.93
2018-08-23T09:09:36.934Z,4.80
2018-08-23T09:12:08.000Z,4.80
2018-08-23T09:14:36.615Z,5.00
2018-08-23T09:17:15.553Z,4.97
2018-08-23T09:19:49.219Z,4.83
2018-08-23T09:22:19.103Z,5.83
2018-08-23T09:24:47.957Z,4.50
2018-08-23T09:27:17.051Z,5.00
2018-08-23T09:29:45.199Z,5.00
2018-08-23T09:32:18.977Z,5.17
2018-08-23T09:34:46.948Z,5.03
2018-08-23T09:37:15.761Z,5.50
2018-08-23T09:39:45.022Z,5.40
2018-08-23T09:42:12.897Z,5.90
2018-08-23T09:44:49.434Z,5.30
2018-08-23T09:47:17.297Z,5.10
2018-08-23T09:49:45.151Z,5.20
2018-08-23T09:52:13.468Z,5.10
2018-08-23T09:54:41.284Z,5.37
2018-08-23T09:57:09.151Z,5.33
2018-08-23T09:59:38.244Z,5.40
2018-08-23T10:02:11.555Z,5.47
2018-08-23T10:04:45.042Z,5.07
2018-08-23T10:07:22.026Z,5.10
2018-08-23T10:09:55.732Z,5.30
2018-08-23T10:12:29.068Z,5.30
2018-08-23T10:15:59.987Z,5.30
2018-08-23T10:18:33.428Z,5.43
2018-08-23T10:21:02.516Z,5.30
2018-08-23T10:23:30.436Z,5.23
2018-08-23T10:25:59.672Z,5.27
2018-08-23T10:28:31.850Z,5.60
2018-08-23T10:31:00.652Z,5.57
2018-08-23T10:33:28.647Z,5.60
2018-08-23T10:35:57.092Z,5.43
2018-08-23T10:38:26.376Z,5.53
2018-08-23T10:40:58.572Z,6.07
2018-08-23T10:43:31.872Z,6.00
2018-08-23T10:46:02.897Z,5.40
2018-08-23T10:48:30.901Z,5.33
2018-08-23T10:50:58.794Z,5.70
2018-08-23T10:53:26.769Z,5.60
2018-08-23T10:55:54.632Z,5.57
2018-08-23T10:58:22.511Z,5.07
2018-08-23T11:00:50.359Z,6.20
2018-08-23T11:03:18.256Z,5.70
2018-08-23T11:05:46.061Z,5.77
2018-08-23T11:08:19.889Z,5.47
2018-08-23T11:10:53.214Z,5.20
2018-08-23T11:13:26.751Z,5.60
2018-08-23T11:16:00.076Z,6.27
2018-08-23T11:18:33.580Z,5.57
2018-08-23T11:21:01.495Z,6.00
2018-08-23T11:23:29.444Z,5.40
2018-08-23T11:25:57.370Z,5.83
2018-08-23T11:28:26.347Z,5.30
2018-08-23T11:30:55.049Z,5.47
2018-08-23T11:33:22.885Z,5.50
2018-08-23T11:35:50.850Z,5.10
2018-08-23T11:38:18.882Z,5.70
2018-08-23T11:40:46.803Z,7.00
2018-08-23T11:43:14.707Z,5.40
2018-08-23T11:45:42.614Z,6.10
2018-08-23T11:48:10.416Z,5.77
2018-08-23T11:50:38.318Z,5.93
2018-08-23T11:53:06.269Z,5.70
2018-08-23T11:56:05.135Z,5.50
2018-08-23T11:58:33.017Z,5.70
2018-08-23T12:01:06.386Z,5.90
2018-08-23T12:03:34.414Z,5.90
2018-08-23T12:06:02.289Z,6.40
2018-08-23T12:08:30.190Z,6.20
2018-08-23T12:10:58.161Z,5.90
2018-08-23T12:13:26.135Z,6.00
2018-08-23T12:15:54.096Z,6.07
2018-08-23T12:18:22.056Z,5.70
2018-08-23T12:20:49.957Z,6.23
2018-08-23T12:23:17.859Z,5.47
2018-08-23T12:30:45.647Z,5.93
2018-08-23T12:35:40.533Z,6.53
2018-08-23T12:38:16.093Z,5.90
2018-08-23T12:40:49.506Z,5.35
2018-08-23T12:43:18.511Z,5.60
2018-08-23T12:45:46.360Z,5.50
2018-08-23T12:48:14.592Z,5.50
2018-08-23T12:50:43.616Z,4.90
2018-08-23T12:53:11.521Z,5.40
2018-08-23T12:55:39.524Z,5.50
2018-08-23T12:58:09.605Z,5.80
2018-08-23T13:00:37.628Z,5.80
2018-08-23T13:03:05.593Z,4.97
2018-08-23T13:05:33.624Z,5.40
2018-08-23T13:08:01.426Z,5.10
2018-08-23T13:10:29.394Z,5.10
2018-08-23T13:15:24.346Z,5.30
2018-08-23T13:52:14.043Z,7.90
2018-08-23T14:16:59.722Z,7.20
2018-08-23T14:19:27.564Z,6.78
2018-08-23T14:21:55.782Z,6.53
2018-08-23T14:24:23.657Z,6.10
2018-08-23T14:26:51.606Z,5.78
2018-08-23T14:29:19.561Z,7.55
2018-08-23T14:31:47.442Z,7.08
2018-08-23T14:34:15.299Z,6.47
2018-08-23T14:36:43.135Z,7.55
2018-08-23T14:39:12.087Z,7.85
2018-08-23T14:41:40.447Z,8.03
2018-08-23T14:44:08.983Z,7.97
2018-08-23T14:46:42.449Z,8.60
2018-08-23T14:49:10.242Z,9.05
2018-08-23T14:51:38.073Z,6.97
2018-08-23T14:54:10.329Z,6.47
2018-08-23T14:56:43.894Z,5.65
2018-08-23T14:59:11.899Z,6.05
2018-08-23T15:01:39.746Z,6.57
2018-08-23T15:04:07.651Z,6.67
2018-08-23T15:06:35.585Z,6.90
2018-08-23T15:09:04.851Z,7.00
2018-08-23T15:11:32.875Z,6.37
2018-08-23T15:14:00.787Z,7.08
2018-08-23T15:16:28.713Z,7.03
2018-08-23T15:18:56.652Z,6.50
2018-08-23T15:21:24.547Z,6.67
2018-08-23T15:23:52.574Z,8.20
2018-08-23T15:26:20.608Z,9.83
2018-08-23T15:28:48.363Z,9.75
2018-08-23T15:31:16.317Z,8.23
2018-08-23T15:33:44.212Z,8.63
2018-08-23T15:36:12.145Z,8.00
2018-08-23T15:38:40.074Z,8.35
2018-08-23T15:41:07.901Z,8.43
2018-08-23T15:43:35.862Z,8.93
2018-08-23T15:46:03.770Z,9.30
2018-08-23T15:48:31.621Z,8.53
2018-08-23T15:50:59.538Z,8.58
2018-08-23T15:53:27.373Z,9.05
2018-08-23T15:55:55.335Z,8.40
2018-08-23T15:58:23.189Z,8.83
2018-08-23T16:00:51.076Z,10.00
2018-08-23T16:03:18.951Z,10.70
2018-08-23T16:05:46.861Z,10.15
2018-08-23T16:08:14.682Z,8.95
2018-08-23T16:10:42.519Z,7.95
2018-08-23T16:13:10.446Z,6.33
2018-08-23T16:15:38.272Z,5.70
2018-08-23T16:18:11.712Z,5.85
2018-08-23T16:20:45.186Z,5.23
2018-08-23T16:23:13.057Z,5.30
2018-08-23T16:25:42.277Z,5.53
2018-08-23T16:28:10.297Z,6.00
2018-08-23T16:30:41.437Z,5.60
2018-08-23T16:33:09.611Z,5.40
2018-08-23T16:35:37.423Z,5.00
2018-08-23T16:38:05.417Z,5.00
2018-08-23T16:40:33.337Z,5.40
2018-08-23T16:43:02.832Z,5.40
2018-08-23T16:47:57.782Z,5.40
2018-08-23T17:05:09.774Z,5.97
2018-08-23T17:07:37.650Z,6.00
2018-08-23T17:10:05.566Z,6.07
2018-08-23T17:12:33.495Z,5.67
2018-08-23T17:15:02.304Z,6.13
2018-08-23T17:17:33.756Z,5.80
2018-08-23T17:20:02.641Z,5.90
2018-08-23T17:22:30.747Z,5.50
2018-08-23T17:24:58.784Z,5.60
2018-08-23T17:27:26.790Z,6.30
2018-08-23T17:29:54.705Z,5.90
2018-08-23T17:32:22.746Z,6.13
2018-08-23T17:34:50.674Z,6.23
2018-08-23T17:37:18.584Z,6.60
2018-08-23T17:39:46.416Z,6.00
2018-08-23T17:42:14.326Z,6.40
2018-08-23T17:44:42.185Z,7.80
2018-08-23T17:47:10.061Z,6.23
2018-08-23T17:49:37.945Z,6.40
2018-08-23T17:52:06.017Z,6.73
2018-08-23T17:54:34.066Z,6.73
2018-08-23T17:57:02.007Z,6.43
2018-08-23T17:59:29.921Z,7.00
2018-08-23T18:01:57.808Z,7.00
2018-08-23T18:04:25.747Z,7.27
2018-08-23T18:06:53.646Z,7.10
2018-08-23T18:09:21.540Z,8.07
2018-08-23T18:11:49.457Z,8.03
2018-08-23T18:14:17.413Z,8.00
2018-08-23T18:16:50.899Z,7.93
2018-08-23T18:19:18.782Z,7.47
2018-08-23T18:21:46.712Z,7.43
2018-08-23T18:24:14.627Z,6.77
2018-08-23T18:26:42.554Z,7.03
2018-08-23T18:29:10.504Z,8.27
2018-08-23T18:31:38.369Z,12.43
2018-08-23T18:34:06.308Z,27.77
2018-08-23T18:36:35.145Z,37.00
2018-08-23T18:39:03.078Z,37.67
2018-08-23T18:41:31.107Z,36.80
2018-08-23T18:43:58.941Z,28.63
2018-08-23T18:46:26.990Z,26.60
2018-08-23T18:48:59.483Z,15.63
2018-08-23T18:51:29.513Z,9.10
2018-08-23T18:53:58.078Z,6.90
2018-08-23T18:56:27.790Z,6.37
2018-08-23T18:58:56.181Z,5.33
2018-08-23T19:01:24.183Z,5.70
2018-08-23T19:03:52.287Z,6.00
2018-08-23T19:06:20.419Z,6.10
2018-08-23T19:08:48.432Z,5.90
2018-08-23T19:11:16.384Z,6.93
2018-08-23T19:13:44.321Z,6.17
2018-08-23T19:16:17.827Z,6.10
2018-08-23T19:18:45.927Z,6.10
2018-08-23T19:21:13.724Z,6.03
2018-08-23T19:23:41.627Z,6.20
2018-08-23T19:26:09.659Z,6.00
2018-08-23T19:28:37.433Z,6.60
2018-08-23T19:31:05.307Z,6.00
2018-08-23T19:33:33.220Z,6.03
2018-08-23T19:36:01.085Z,6.10
2018-08-23T19:38:29.004Z,5.70
2018-08-23T19:40:57.930Z,6.80
2018-08-23T19:43:25.868Z,7.17
2018-08-23T19:45:59.157Z,7.30
2018-08-23T19:48:27.053Z,6.70
2018-08-23T19:50:54.973Z,7.43
2018-08-23T19:53:22.945Z,7.43
2018-08-23T19:55:50.886Z,7.17
2018-08-23T19:58:18.855Z,7.70
2018-08-23T20:00:46.763Z,7.50
2018-08-23T20:03:14.718Z,7.60
2018-08-23T20:05:42.627Z,7.80
2018-08-23T20:08:10.558Z,8.40
2018-08-23T20:10:38.457Z,6.87
2018-08-23T20:13:06.392Z,8.10
2018-08-23T20:15:34.322Z,7.90
2018-08-23T20:18:03.218Z,7.73
2018-08-23T20:20:31.111Z,8.37
2018-08-23T20:22:59.026Z,8.17
2018-08-23T20:25:26.967Z,7.90
2018-08-23T20:27:54.953Z,7.60
2018-08-23T20:30:22.895Z,8.07
2018-08-23T20:32:50.829Z,8.37
2018-08-23T20:35:19.451Z,8.30
2018-08-23T20:37:47.318Z,8.40
2018-08-23T20:40:15.275Z,8.20
2018-08-23T20:42:45.123Z,7.80
2018-08-23T20:45:13.077Z,8.40
2018-08-23T20:47:41.956Z,8.73
2018-08-23T20:55:00.854Z,8.00
2018-08-23T20:57:28.790Z,7.90
2018-08-23T20:59:58.636Z,7.67
2018-08-23T21:02:26.570Z,7.80
2018-08-23T21:04:55.703Z,7.83
2018-08-23T21:07:23.623Z,8.07
2018-08-23T21:09:51.502Z,8.00
2018-08-23T21:12:19.450Z,7.60
2018-08-23T21:14:47.310Z,8.80
2018-08-23T21:17:15.211Z,8.30
2018-08-23T21:19:44.126Z,11.27
2018-08-23T21:22:12.042Z,17.20
2018-08-23T21:24:39.889Z,22.17
2018-08-23T21:27:07.803Z,28.20
2018-08-23T21:29:35.761Z,25.73
2018-08-23T21:32:03.680Z,26.97
2018-08-23T21:34:31.585Z,31.40
2018-08-23T21:36:59.469Z,32.10
2018-08-23T21:39:27.438Z,34.80
2018-08-23T21:41:55.409Z,38.80
2018-08-23T21:44:24.161Z,40.07
2018-08-23T21:46:52.026Z,34.10
2018-08-23T21:49:19.921Z,38.03
2018-08-23T21:51:47.860Z,36.40
2018-08-23T21:54:16.023Z,39.83
2018-08-23T21:56:43.929Z,41.10
2018-08-23T21:59:11.890Z,39.23
2018-08-23T22:01:39.760Z,39.90
2018-08-23T22:04:07.618Z,45.73
2018-08-23T22:06:35.463Z,44.13
2018-08-23T22:09:03.463Z,45.80
2018-08-23T22:11:31.408Z,48.90
2018-08-23T22:13:59.339Z,47.53
2018-08-23T22:16:27.253Z,48.83
2018-08-23T22:18:55.100Z,48.93
2018-08-23T22:21:23.074Z,50.40
2018-08-23T22:23:50.958Z,49.83
2018-08-23T22:26:18.854Z,50.33
2018-08-23T22:28:46.808Z,49.87
2018-08-23T22:31:14.715Z,50.27
2018-08-23T22:33:42.649Z,49.10
2018-08-23T22:36:11.643Z,49.50
2018-08-23T22:38:39.622Z,51.70
2018-08-23T22:41:07.561Z,49.20
2018-08-23T22:43:35.392Z,48.27
2018-08-23T22:46:03.293Z,48.10
2018-08-23T22:48:31.153Z,50.80
2018-08-23T22:50:59.049Z,51.33
2018-08-23T22:53:26.978Z,50.80
2018-08-23T22:55:54.901Z,49.40
2018-08-23T22:58:22.895Z,50.60
2018-08-23T23:00:50.805Z,50.23
2018-08-23T23:03:24.247Z,51.27
2018-08-23T23:05:52.190Z,53.57
2018-08-23T23:08:19.996Z,54.77
2018-08-23T23:10:47.934Z,55.53
2018-08-23T23:13:15.851Z,59.60
2018-08-23T23:15:43.753Z,61.40
2018-08-23T23:18:11.660Z,59.77
2018-08-23T23:20:39.562Z,60.20
2018-08-23T23:23:07.489Z,65.33
2018-08-23T23:25:35.462Z,66.07
2018-08-23T23:28:03.423Z,68.90
2018-08-23T23:30:31.375Z,67.07
2018-08-23T23:32:59.366Z,64.63
2018-08-23T23:35:27.209Z,69.23
2018-08-23T23:37:55.211Z,66.50
2018-08-23T23:40:23.141Z,68.87
2018-08-23T23:42:51.081Z,71.17
2018-08-23T23:45:18.998Z,72.17
2018-08-23T23:47:46.922Z,71.90
2018-08-23T23:50:14.823Z,71.20
2018-08-23T23:52:42.797Z,68.40
2018-08-23T23:55:10.689Z,67.13
2018-08-23T23:57:38.593Z,67.40
